createdAt,value
2022-11-26T00:00:31.286Z,8.23
2022-11-26T00:02:59.187Z,8.48
2022-11-26T00:05:31.878Z,7.90
2022-11-26T00:08:01.909Z,8.02
2022-11-26T00:10:35.617Z,8.45
2022-11-26T00:13:03.496Z,8.13
2022-11-26T00:15:32.552Z,8.50
2022-11-26T00:18:00.658Z,8.43
2022-11-26T00:20:31.802Z,8.00
2022-11-26T00:23:03.203Z,7.90
2022-11-26T00:25:40.448Z,7.85
2022-11-26T00:28:28.925Z,7.60
2022-11-26T00:30:59.416Z,7.38
2022-11-26T00:33:28.023Z,8.02
2022-11-26T00:35:58.736Z,7.80
2022-11-26T00:38:27.037Z,7.47
2022-11-26T00:40:56.240Z,7.50
2022-11-26T00:43:24.116Z,7.28
2022-11-26T00:45:52.050Z,7.63
2022-11-26T00:48:20.246Z,7.60
2022-11-26T00:50:50.338Z,7.72
2022-11-26T00:53:21.797Z,7.35
2022-11-26T00:55:50.879Z,7.07
2022-11-26T00:58:27.186Z,7.27
2022-11-26T01:00:56.653Z,6.65
2022-11-26T01:03:24.971Z,7.03
2022-11-26T01:05:55.010Z,7.32
2022-11-26T01:08:29.995Z,7.00
2022-11-26T01:10:58.067Z,7.20
2022-11-26T01:13:27.753Z,6.90
2022-11-26T01:15:56.159Z,7.20
2022-11-26T01:18:25.330Z,7.45
2022-11-26T01:20:53.105Z,7.65
2022-11-26T01:23:21.341Z,7.50
2022-11-26T01:25:49.325Z,7.30
2022-11-26T01:28:19.411Z,7.53
2022-11-26T01:30:48.658Z,7.57
2022-11-26T01:33:16.458Z,7.13
2022-11-26T01:35:44.457Z,7.55
2022-11-26T01:38:15.072Z,7.40
2022-11-26T01:40:54.133Z,7.22
2022-11-26T01:43:26.901Z,7.00
2022-11-26T01:45:57.396Z,6.78
2022-11-26T01:48:29.040Z,7.38
2022-11-26T01:51:05.718Z,6.97
2022-11-26T01:53:44.197Z,6.65
2022-11-26T01:56:23.187Z,6.97
2022-11-26T01:58:55.465Z,7.03
2022-11-26T02:01:24.845Z,6.70
2022-11-26T02:04:03.474Z,7.38
2022-11-26T02:06:33.419Z,6.83
2022-11-26T02:09:03.450Z,6.90
2022-11-26T02:11:31.281Z,7.10
2022-11-26T02:14:01.981Z,6.22
2022-11-26T02:16:47.001Z,6.35
2022-11-26T02:19:46.459Z,6.27
2022-11-26T02:22:28.928Z,6.30
2022-11-26T02:25:06.097Z,6.80
2022-11-26T02:27:54.862Z,6.57
2022-11-26T02:30:24.111Z,6.00
2022-11-26T02:32:59.142Z,6.00
2022-11-26T02:35:34.170Z,5.72
2022-11-26T02:38:06.293Z,5.80
2022-11-26T02:40:34.179Z,6.03
2022-11-26T02:43:02.121Z,5.82
2022-11-26T02:45:34.316Z,5.72
2022-11-26T02:48:04.412Z,6.33
2022-11-26T02:50:37.610Z,6.07
2022-11-26T02:53:06.298Z,5.70
2022-11-26T02:55:39.593Z,5.55
2022-11-26T02:58:08.054Z,5.95
2022-11-26T03:00:42.210Z,6.43
2022-11-26T03:03:17.021Z,5.25
2022-11-26T03:05:44.924Z,5.80
2022-11-26T03:08:12.850Z,6.13
2022-11-26T03:10:40.653Z,6.22
2022-11-26T03:13:08.494Z,6.00
2022-11-26T03:15:37.633Z,6.20
2022-11-26T03:18:05.626Z,5.95
2022-11-26T03:20:33.456Z,5.65
2022-11-26T03:23:01.501Z,6.17
2022-11-26T03:25:29.478Z,5.93
2022-11-26T03:27:57.501Z,6.18
2022-11-26T03:30:25.525Z,6.07
2022-11-26T03:32:54.708Z,6.37
2022-11-26T03:35:22.501Z,5.88
2022-11-26T03:37:50.313Z,5.80
2022-11-26T03:40:18.276Z,5.43
2022-11-26T03:42:46.381Z,6.18
2022-11-26T03:45:14.207Z,6.13
2022-11-26T03:47:42.007Z,5.57
2022-11-26T03:50:11.830Z,5.78
2022-11-26T03:52:39.630Z,5.78
2022-11-26T03:55:09.231Z,6.18
2022-11-26T03:57:37.443Z,6.20
2022-11-26T04:00:08.678Z,6.60
2022-11-26T04:02:36.476Z,6.10
2022-11-26T04:05:04.961Z,6.20
2022-11-26T04:07:34.145Z,6.88
2022-11-26T04:10:01.959Z,6.47
2022-11-26T04:12:29.800Z,6.75
2022-11-26T04:14:57.554Z,7.32
2022-11-26T04:17:25.322Z,6.88
2022-11-26T04:19:53.559Z,7.30
2022-11-26T04:22:21.354Z,6.70
2022-11-26T04:24:50.470Z,7.05
2022-11-26T04:27:18.296Z,6.97
2022-11-26T04:29:46.044Z,7.00
2022-11-26T04:32:13.816Z,6.90
2022-11-26T04:34:41.609Z,6.85
2022-11-26T04:37:09.433Z,7.03
2022-11-26T04:39:37.401Z,7.03
2022-11-26T04:42:06.641Z,6.80
2022-11-26T04:44:34.400Z,6.85
2022-11-26T04:47:02.243Z,7.03
2022-11-26T04:49:30.041Z,6.45
2022-11-26T04:51:58.046Z,6.90
2022-11-26T04:54:25.822Z,6.70
2022-11-26T04:56:53.866Z,7.78
2022-11-26T04:59:22.992Z,6.77
2022-11-26T05:01:50.774Z,6.78
2022-11-26T05:04:18.661Z,6.90
2022-11-26T05:06:46.452Z,7.22
2022-11-26T05:09:14.273Z,7.53
2022-11-26T05:11:42.378Z,7.57
2022-11-26T05:14:10.212Z,7.38
2022-11-26T05:16:39.488Z,8.20
2022-11-26T05:19:07.337Z,8.20
2022-11-26T05:21:35.082Z,7.80
2022-11-26T05:24:02.887Z,8.05
2022-11-26T05:26:30.763Z,8.05
2022-11-26T05:28:58.529Z,8.32
2022-11-26T05:31:26.515Z,8.15
2022-11-26T05:33:55.657Z,8.50
2022-11-26T05:36:23.478Z,8.05
2022-11-26T05:38:51.295Z,8.50
2022-11-26T05:41:19.069Z,8.30
2022-11-26T05:43:46.928Z,7.63
2022-11-26T05:46:17.262Z,8.27
2022-11-26T05:48:45.638Z,7.82
2022-11-26T05:51:14.900Z,8.27
2022-11-26T05:53:42.686Z,7.35
2022-11-26T05:56:10.801Z,8.10
2022-11-26T05:58:38.572Z,8.10
2022-11-26T06:01:09.135Z,8.25
2022-11-26T06:03:37.675Z,8.25
2022-11-26T06:06:06.200Z,8.60
2022-11-26T06:08:35.612Z,8.20
2022-11-26T06:11:03.411Z,8.30
2022-11-26T06:13:31.185Z,8.00
2022-11-26T06:15:59.548Z,8.70
2022-11-26T06:18:27.542Z,7.78
2022-11-26T06:20:55.466Z,8.48
2022-11-26T06:23:23.359Z,8.23
2022-11-26T06:25:52.474Z,8.05
2022-11-26T06:28:20.355Z,7.90
2022-11-26T06:30:48.169Z,7.43
2022-11-26T06:33:15.936Z,7.57
2022-11-26T06:35:43.798Z,7.88
2022-11-26T06:38:12.310Z,7.68
2022-11-26T06:40:40.090Z,7.85
2022-11-26T06:43:09.428Z,7.90
2022-11-26T06:45:37.212Z,7.45
2022-11-26T06:48:05.302Z,7.90
2022-11-26T06:50:33.333Z,7.20
2022-11-26T06:53:01.217Z,6.80
2022-11-26T06:55:29.007Z,6.97
2022-11-26T06:57:56.782Z,7.05
2022-11-26T07:00:26.058Z,6.85
2022-11-26T07:02:53.886Z,6.43
2022-11-26T07:05:21.739Z,6.50
2022-11-26T07:07:49.583Z,5.55
2022-11-26T07:10:18.630Z,5.70
2022-11-26T07:12:46.502Z,5.33
2022-11-26T07:15:14.257Z,5.13
2022-11-26T07:17:43.386Z,5.28
2022-11-26T07:20:12.029Z,4.95
2022-11-26T07:22:39.978Z,4.95
2022-11-26T07:25:12.501Z,5.10
2022-11-26T07:27:41.073Z,5.20
2022-11-26T07:30:10.420Z,4.65
2022-11-26T07:32:38.360Z,4.60
2022-11-26T07:35:08.448Z,4.23
2022-11-26T07:37:36.369Z,4.13
2022-11-26T07:40:05.633Z,4.13
2022-11-26T07:42:33.499Z,3.30
2022-11-26T07:45:01.368Z,3.60
2022-11-26T07:47:29.137Z,3.90
2022-11-26T07:49:56.899Z,3.60
2022-11-26T07:52:26.056Z,3.35
2022-11-26T07:54:53.878Z,3.30
2022-11-26T07:57:22.885Z,3.10
2022-11-26T07:59:50.717Z,2.90
2022-11-26T08:02:19.016Z,3.40
2022-11-26T08:04:46.845Z,2.92
2022-11-26T08:07:20.097Z,2.90
2022-11-26T08:09:53.646Z,2.85
2022-11-26T08:12:21.480Z,2.90
2022-11-26T08:14:49.284Z,2.85
2022-11-26T08:17:17.119Z,2.85
2022-11-26T08:19:45.045Z,2.80
2022-11-26T08:22:12.849Z,2.85
2022-11-26T08:24:40.880Z,2.75
2022-11-26T08:27:10.356Z,3.10
2022-11-26T08:29:38.527Z,3.00
2022-11-26T08:32:06.431Z,3.13
2022-11-26T08:34:34.550Z,3.30
2022-11-26T08:37:02.321Z,3.35
2022-11-26T08:39:30.332Z,3.53
2022-11-26T08:41:58.162Z,3.92
2022-11-26T08:44:27.362Z,3.47
2022-11-26T08:46:55.168Z,3.70
2022-11-26T08:49:22.993Z,3.95
2022-11-26T08:51:50.799Z,3.92
2022-11-26T08:54:18.585Z,4.07
2022-11-26T08:56:46.396Z,4.13
2022-11-26T08:59:14.245Z,4.45
2022-11-26T09:01:43.451Z,4.28
2022-11-26T09:04:11.293Z,4.22
2022-11-26T09:06:40.786Z,4.18
2022-11-26T09:09:15.526Z,3.92
2022-11-26T09:11:46.049Z,4.10
2022-11-26T09:14:15.072Z,4.30
2022-11-26T09:16:44.494Z,4.03
2022-11-26T09:19:13.738Z,4.15
2022-11-26T09:21:41.850Z,3.65
2022-11-26T09:24:09.742Z,4.00
2022-11-26T09:26:37.736Z,3.80
2022-11-26T09:29:05.861Z,3.65
2022-11-26T09:31:34.147Z,3.45
2022-11-26T09:34:03.765Z,3.72
2022-11-26T09:36:31.706Z,3.92
2022-11-26T09:39:00.589Z,4.05
2022-11-26T09:41:40.541Z,3.75
2022-11-26T09:44:23.540Z,4.20
2022-11-26T09:47:13.817Z,4.10
2022-11-26T09:49:54.433Z,4.43
2022-11-26T09:52:24.545Z,4.53
2022-11-26T09:54:58.952Z,4.45
2022-11-26T09:57:31.893Z,4.53
2022-11-26T09:59:59.781Z,4.13
2022-11-26T10:02:27.598Z,4.20
2022-11-26T10:04:56.813Z,5.00
2022-11-26T10:07:41.688Z,4.25
2022-11-26T10:10:17.594Z,3.97
2022-11-26T10:13:17.237Z,4.43
2022-11-26T10:15:51.305Z,4.30
2022-11-26T10:18:29.501Z,4.50
2022-11-26T10:21:12.298Z,5.82
2022-11-26T10:23:46.182Z,4.30
2022-11-26T10:26:17.777Z,4.78
2022-11-26T10:28:47.584Z,5.25
2022-11-26T10:31:21.996Z,4.80
2022-11-26T10:33:56.733Z,5.03
2022-11-26T10:36:28.689Z,5.75
2022-11-26T10:38:57.204Z,7.28
2022-11-26T10:41:28.882Z,6.90
2022-11-26T10:43:56.691Z,7.18
2022-11-26T10:46:37.497Z,7.65
2022-11-26T10:49:23.440Z,7.80
2022-11-26T10:51:55.616Z,8.02
2022-11-26T10:54:27.205Z,8.63
2022-11-26T10:56:56.401Z,8.68
2022-11-26T10:59:28.057Z,9.10
2022-11-26T11:02:01.890Z,8.60
2022-11-26T11:04:33.133Z,8.90
2022-11-26T11:07:05.197Z,8.55
2022-11-26T11:09:37.834Z,8.10
2022-11-26T11:12:21.836Z,8.65
2022-11-26T11:14:51.613Z,8.20
2022-11-26T11:17:34.080Z,8.05
2022-11-26T11:20:21.979Z,8.77
2022-11-26T11:22:59.391Z,8.00
2022-11-26T11:25:30.822Z,8.82
2022-11-26T11:28:08.963Z,8.82
2022-11-26T11:30:41.470Z,8.80
2022-11-26T11:33:20.569Z,9.80
2022-11-26T11:36:01.435Z,10.73
2022-11-26T11:38:32.565Z,9.98
2022-11-26T11:41:05.459Z,10.40
2022-11-26T11:43:37.637Z,9.85
2022-11-26T11:46:17.301Z,9.60
2022-11-26T11:48:54.276Z,9.52
2022-11-26T11:51:34.082Z,9.20
2022-11-26T11:54:14.790Z,9.80
2022-11-26T11:56:47.881Z,9.32
2022-11-26T11:59:47.504Z,9.73
2022-11-26T12:02:34.685Z,9.65
2022-11-26T12:05:23.786Z,9.63
2022-11-26T12:07:59.335Z,9.15
2022-11-26T12:10:35.694Z,9.13
2022-11-26T12:13:07.886Z,8.83
2022-11-26T12:15:43.070Z,9.80
2022-11-26T12:18:23.565Z,9.07
2022-11-26T12:20:54.723Z,9.40
2022-11-26T12:23:30.275Z,9.25
2022-11-26T12:26:07.001Z,9.27
2022-11-26T12:28:39.752Z,9.85
2022-11-26T12:31:14.337Z,9.32
2022-11-26T12:33:47.257Z,9.80
2022-11-26T12:36:20.649Z,9.90
2022-11-26T12:38:53.299Z,9.73
2022-11-26T12:41:26.509Z,9.23
2022-11-26T12:44:00.113Z,9.40
2022-11-26T12:46:34.657Z,9.77
2022-11-26T12:49:13.299Z,8.85
2022-11-26T12:51:46.866Z,8.85
2022-11-26T12:54:20.729Z,9.02
2022-11-26T12:56:58.083Z,9.67
2022-11-26T12:59:30.639Z,9.25
2022-11-26T13:01:58.912Z,8.65
2022-11-26T13:04:38.109Z,8.75
2022-11-26T13:07:15.170Z,9.40
2022-11-26T13:10:00.038Z,8.18
2022-11-26T13:12:39.965Z,8.82
2022-11-26T13:15:18.438Z,9.40
2022-11-26T13:17:49.099Z,8.40
2022-11-26T13:20:36.519Z,9.02
2022-11-26T13:23:19.309Z,8.15
2022-11-26T13:26:08.423Z,8.82
2022-11-26T13:28:59.084Z,7.70
2022-11-26T13:31:43.252Z,7.57
2022-11-26T13:34:26.886Z,8.18
2022-11-26T13:37:22.390Z,7.53
2022-11-26T13:40:20.104Z,7.10
2022-11-26T13:43:16.829Z,7.40
2022-11-26T13:46:07.203Z,7.53
2022-11-26T13:48:42.932Z,8.13
2022-11-26T13:51:18.972Z,6.20
2022-11-26T13:53:51.629Z,6.07
2022-11-26T13:56:23.322Z,5.82
2022-11-26T13:58:55.860Z,5.95
2022-11-26T14:01:36.713Z,6.00
2022-11-26T14:04:07.670Z,5.82
2022-11-26T14:06:38.209Z,5.70
2022-11-26T14:09:06.820Z,6.10
2022-11-26T14:11:58.043Z,6.60
2022-11-26T14:14:34.290Z,7.20
2022-11-26T14:17:18.731Z,6.20
2022-11-26T14:20:06.728Z,6.60
2022-11-26T14:22:36.545Z,6.35
2022-11-26T14:25:07.498Z,6.40
2022-11-26T14:27:37.225Z,5.95
2022-11-26T14:30:26.840Z,5.70
2022-11-26T14:33:14.861Z,6.20
2022-11-26T14:35:54.721Z,7.95
2022-11-26T14:38:27.630Z,7.40
2022-11-26T14:41:00.329Z,7.57
2022-11-26T14:43:29.376Z,8.38
2022-11-26T14:46:06.740Z,8.32
2022-11-26T14:48:42.068Z,7.18
2022-11-26T14:51:10.216Z,6.68
2022-11-26T14:53:44.005Z,5.95
2022-11-26T14:56:12.402Z,6.55
2022-11-26T14:58:44.192Z,6.18
2022-11-26T15:01:20.736Z,6.25
2022-11-26T15:03:58.560Z,5.97
2022-11-26T15:06:28.909Z,6.43
2022-11-26T15:09:07.804Z,6.75
2022-11-26T15:11:38.746Z,6.63
2022-11-26T15:14:06.690Z,6.43
2022-11-26T15:16:37.237Z,6.20
2022-11-26T15:19:07.626Z,6.50
2022-11-26T15:21:36.426Z,6.65
2022-11-26T15:24:09.606Z,6.38
2022-11-26T15:26:39.580Z,6.70
2022-11-26T15:29:32.961Z,6.47
2022-11-26T15:32:01.101Z,6.50
2022-11-26T15:34:32.573Z,6.60
2022-11-26T15:37:00.444Z,6.80
2022-11-26T15:39:30.669Z,6.57
2022-11-26T15:42:03.738Z,7.10
2022-11-26T15:44:35.447Z,7.43
2022-11-26T15:47:07.095Z,7.10
2022-11-26T15:49:39.002Z,6.88
2022-11-26T15:52:10.126Z,7.60
2022-11-26T15:55:10.930Z,7.32
2022-11-26T15:57:32.639Z,6.95
2022-11-26T16:00:04.025Z,7.10
2022-11-26T16:02:32.176Z,7.75
2022-11-26T16:05:02.507Z,7.60
2022-11-26T16:07:32.084Z,7.50
2022-11-26T16:10:23.875Z,7.60
2022-11-26T16:13:20.297Z,7.45
2022-11-26T16:15:52.825Z,7.47
2022-11-26T16:18:23.483Z,8.50
2022-11-26T16:21:03.634Z,8.80
2022-11-26T16:23:32.013Z,9.43
2022-11-26T16:26:13.834Z,10.27
2022-11-26T16:28:41.866Z,9.60
2022-11-26T16:31:09.952Z,8.35
2022-11-26T16:33:37.988Z,8.23
2022-11-26T16:36:21.501Z,8.98
2022-11-26T16:38:50.286Z,9.27
2022-11-26T16:41:19.931Z,9.70
2022-11-26T16:43:48.020Z,9.80
2022-11-26T16:46:18.437Z,10.80
2022-11-26T16:51:17.019Z,10.57
2022-11-26T16:53:45.178Z,11.48
2022-11-26T16:56:20.332Z,9.88
2022-11-26T16:58:48.329Z,9.60
2022-11-26T17:01:16.229Z,10.68
2022-11-26T17:03:44.437Z,10.65
2022-11-26T17:06:18.437Z,10.10
2022-11-26T17:11:34.093Z,12.90
2022-11-26T17:14:01.839Z,13.60
2022-11-26T17:16:30.117Z,13.00
2022-11-26T17:18:57.968Z,12.48
2022-11-26T17:21:27.077Z,12.88
2022-11-26T17:23:54.849Z,12.15
2022-11-26T17:26:26.025Z,12.65
2022-11-26T17:28:53.836Z,13.48
2022-11-26T17:31:21.622Z,12.00
2022-11-26T17:33:50.606Z,11.57
2022-11-26T17:36:20.108Z,12.35
2022-11-26T17:38:49.930Z,14.17
2022-11-26T17:41:18.145Z,13.88
2022-11-26T17:43:46.153Z,12.23
2022-11-26T17:46:19.334Z,13.50
2022-11-26T17:48:48.069Z,13.23
2022-11-26T17:51:16.185Z,13.30
2022-11-26T17:53:44.930Z,12.18
2022-11-26T17:56:19.205Z,12.60
2022-11-26T17:58:47.731Z,13.27
2022-11-26T18:01:16.483Z,14.57
2022-11-26T18:03:44.939Z,13.43
2022-11-26T18:06:16.765Z,16.77
2022-11-26T18:08:44.611Z,15.70
2022-11-26T18:11:12.832Z,16.00
2022-11-26T18:13:42.058Z,17.20
2022-11-26T18:16:10.031Z,17.65
2022-11-26T18:18:37.902Z,15.95
2022-11-26T18:21:06.409Z,17.80
2022-11-26T18:23:34.552Z,19.65
2022-11-26T18:26:03.063Z,19.60
2022-11-26T18:28:31.205Z,18.17
2022-11-26T18:31:00.449Z,17.85
2022-11-26T18:33:28.862Z,18.50
2022-11-26T18:35:57.816Z,18.53
2022-11-26T18:38:29.094Z,19.48
2022-11-26T18:41:03.596Z,17.25
2022-11-26T18:43:32.978Z,17.45
2022-11-26T18:46:05.457Z,17.17
2022-11-26T18:48:36.416Z,16.15
2022-11-26T18:51:05.200Z,16.80
2022-11-26T18:53:34.468Z,18.00
2022-11-26T18:56:07.351Z,18.50
2022-11-26T18:58:36.909Z,17.85
2022-11-26T19:01:13.653Z,15.77
2022-11-26T19:03:44.119Z,18.55
2022-11-26T19:06:15.214Z,17.00
2022-11-26T19:08:43.986Z,17.67
2022-11-26T19:11:14.615Z,16.77
2022-11-26T19:13:42.716Z,17.00
2022-11-26T19:16:16.827Z,18.40
2022-11-26T19:18:46.358Z,17.10
2022-11-26T19:21:24.336Z,16.40
2022-11-26T19:23:53.425Z,15.18
2022-11-26T19:26:22.178Z,16.15
2022-11-26T19:28:51.465Z,16.52
2022-11-26T19:31:23.228Z,16.10
2022-11-26T19:33:55.217Z,17.00
2022-11-26T19:36:23.467Z,17.35
2022-11-26T19:38:56.043Z,16.73
2022-11-26T19:41:26.061Z,15.95
2022-11-26T19:43:54.565Z,15.63
2022-11-26T19:46:25.732Z,15.70
2022-11-26T19:48:55.388Z,16.58
2022-11-26T19:51:26.212Z,16.73
2022-11-26T19:53:56.471Z,16.10
2022-11-26T19:56:26.578Z,16.45
2022-11-26T19:58:57.983Z,17.65
2022-11-26T20:01:30.373Z,17.27
2022-11-26T20:03:59.818Z,15.57
2022-11-26T20:06:29.204Z,16.33
2022-11-26T20:08:58.996Z,17.35
2022-11-26T20:11:27.570Z,16.58
2022-11-26T20:13:56.057Z,16.42
2022-11-26T20:16:25.937Z,19.42
2022-11-26T20:18:55.706Z,17.90
2022-11-26T20:21:26.493Z,18.02
2022-11-26T20:23:56.374Z,18.33
2022-11-26T20:26:26.269Z,19.05
2022-11-26T20:28:55.003Z,17.27
2022-11-26T20:31:24.702Z,19.60
2022-11-26T20:33:53.234Z,17.20
2022-11-26T20:36:23.420Z,18.23
2022-11-26T20:38:53.407Z,18.73
2022-11-26T20:41:21.349Z,18.98
2022-11-26T20:43:53.547Z,17.63
2022-11-26T20:46:26.117Z,17.33
2022-11-26T20:48:54.174Z,17.65
2022-11-26T20:51:23.977Z,17.83
2022-11-26T20:53:52.978Z,16.25
2022-11-26T20:56:22.711Z,15.67
2022-11-26T20:58:52.317Z,16.17
2022-11-26T21:01:22.697Z,15.82
2022-11-26T21:03:51.313Z,17.73
2022-11-26T21:06:27.591Z,17.02
2022-11-26T21:08:59.809Z,17.02
2022-11-26T21:11:28.196Z,16.38
2022-11-26T21:13:56.185Z,19.60
2022-11-26T21:16:24.047Z,20.83
2022-11-26T21:18:54.163Z,22.58
2022-11-26T21:21:22.463Z,21.52
2022-11-26T21:23:50.279Z,21.45
2022-11-26T21:26:21.353Z,24.05
2022-11-26T21:28:51.580Z,21.10
2022-11-26T21:31:20.274Z,22.07
2022-11-26T21:33:49.133Z,21.33
2022-11-26T21:36:17.932Z,22.55
2022-11-26T21:38:49.270Z,19.40
2022-11-26T21:41:20.056Z,19.90
2022-11-26T21:43:49.090Z,21.20
2022-11-26T21:46:19.054Z,19.52
2022-11-26T21:48:47.250Z,19.27
2022-11-26T21:51:16.959Z,19.15
2022-11-26T21:53:45.045Z,18.52
2022-11-26T21:56:15.110Z,18.73
2022-11-26T21:58:44.672Z,20.17
2022-11-26T22:01:13.802Z,18.67
2022-11-26T22:03:43.148Z,19.03
2022-11-26T22:06:12.041Z,18.52
2022-11-26T22:08:40.253Z,18.05
2022-11-26T22:11:10.239Z,18.92
2022-11-26T22:13:38.099Z,17.60
2022-11-26T22:16:08.379Z,18.52
2022-11-26T22:18:38.205Z,16.95
2022-11-26T22:21:07.798Z,17.27
2022-11-26T22:23:35.572Z,17.23
2022-11-26T22:26:03.368Z,16.20
2022-11-26T22:28:31.490Z,16.73
2022-11-26T22:30:59.300Z,16.90
2022-11-26T22:33:28.502Z,17.65
2022-11-26T22:35:56.249Z,18.13
2022-11-26T22:38:24.029Z,19.50
2022-11-26T22:40:51.845Z,16.88
2022-11-26T22:43:19.655Z,18.33
2022-11-26T22:45:47.454Z,18.75
2022-11-26T22:48:15.291Z,17.02
2022-11-26T22:50:51.207Z,18.43
2022-11-26T22:53:19.197Z,18.27
2022-11-26T22:55:51.614Z,18.23
2022-11-26T22:58:20.269Z,17.58
2022-11-26T23:00:50.743Z,16.65
2022-11-26T23:03:20.019Z,17.70
2022-11-26T23:05:49.351Z,17.50
2022-11-26T23:08:18.278Z,16.65
2022-11-26T23:10:48.286Z,18.07
2022-11-26T23:13:17.375Z,16.17
2022-11-26T23:15:46.777Z,16.77
2022-11-26T23:18:16.566Z,15.95
2022-11-26T23:20:44.827Z,16.48
2022-11-26T23:23:14.394Z,16.25
2022-11-26T23:25:42.485Z,17.77
2022-11-26T23:28:10.506Z,15.95
2022-11-26T23:30:38.293Z,15.68
2022-11-26T23:33:06.100Z,16.50
2022-11-26T23:35:34.591Z,15.50
2022-11-26T23:38:02.342Z,15.90
2022-11-26T23:40:31.498Z,16.08
2022-11-26T23:43:03.358Z,17.00
2022-11-26T23:45:33.746Z,16.10
2022-11-26T23:48:01.534Z,16.92
2022-11-26T23:50:30.014Z,16.43
2022-11-26T23:52:57.765Z,15.52
2022-11-26T23:55:25.554Z,15.38
2022-11-26T23:57:54.685Z,16.50
